Time,TemperatureF,DewpointF,PressureIn,WindDirection,WindDirectionDegrees,WindSpeedMPH,WindSpeedGustMPH,Humidity,HourlyPrecipIn,Conditions,Clouds,dailyrainin,SoftwareType,DateUTC
2013-03-19 00:14:00,66.6,64.2,29.78,WSW,247,3.2,-999.0,92,-99.99,,,0.00,Acu-Link.com,2013-03-19 04:14:00,
2013-03-19 00:30:00,66.6,64.2,29.77,WNW,292,3.2,-999.0,92,-99.99,,,0.00,Acu-Link.com,2013-03-19 04:30:00,
2013-03-19 00:45:00,66.4,64.0,29.78,SSE,157,0.0,-999.0,92,-99.99,,,0.00,Acu-Link.com,2013-03-19 04:45:00,
2013-03-19 01:01:00,66.2,64.1,29.77,WNW,292,0.0,-999.0,93,-99.99,,,0.00,Acu-Link.com,2013-03-19 05:01:00,
2013-03-19 01:31:00,65.1,63.3,29.76,SE,135,0.0,-999.0,94,-99.99,,,0.00,Acu-Link.com,2013-03-19 05:31:00,
2013-03-19 01:47:00,64.4,62.9,29.76,ESE,112,0.0,-999.0,95,-99.99,,,0.00,Acu-Link.com,2013-03-19 05:47:00,
2013-03-19 02:02:00,64.2,63.0,29.76,ESE,112,0.0,-999.0,96,-99.99,,,0.00,Acu-Link.com,2013-03-19 06:02:00,
2013-03-19 02:17:00,64.0,62.8,29.76,East,90,0.0,-999.0,96,-99.99,,,0.00,Acu-Link.com,2013-03-19 06:17:00,
2013-03-19 02:32:00,63.9,62.7,29.75,ESE,112,0.0,-999.0,96,-99.99,,,0.00,Acu-Link.com,2013-03-19 06:32:00,
2013-03-19 02:48:00,63.5,62.3,29.75,ESE,112,0.0,-999.0,96,-99.99,,,0.00,Acu-Link.com,2013-03-19 06:48:00,
2013-03-19 03:03:00,63.3,62.1,29.75,ESE,112,0.0,-999.0,96,-99.99,,,0.00,Acu-Link.com,2013-03-19 07:03:00,
2013-03-19 03:18:00,63.3,62.4,29.75,ESE,112,0.0,-999.0,97,-99.99,,,0.00,Acu-Link.com,2013-03-19 07:18:00,
2013-03-19 03:34:00,63.3,62.7,29.77,WNW,292,0.0,-999.0,98,-99.99,,,0.00,Acu-Link.com,2013-03-19 07:34:00,
2013-03-19 03:49:00,63.1,62.5,29.77,ESE,112,0.0,-999.0,98,-99.99,,,0.00,Acu-Link.com,2013-03-19 07:49:00,
2013-03-19 04:04:00,63.3,63.0,29.77,South,180,0.0,-999.0,99,-99.99,,,0.00,Acu-Link.com,2013-03-19 08:04:00,
2013-03-19 04:19:00,63.1,62.8,29.77,NE,45,0.0,-999.0,99,-99.99,,,0.00,Acu-Link.com,2013-03-19 08:19:00,
2013-03-19 04:34:00,62.6,62.3,29.77,SE,135,0.0,-999.0,99,-99.99,,,0.00,Acu-Link.com,2013-03-19 08:34:00,
2013-03-19 04:49:00,62.6,62.3,29.78,WSW,247,0.0,-999.0,99,-99.99,,,0.00,Acu-Link.com,2013-03-19 08:49:00,
2013-03-19 05:04:00,61.9,61.6,29.77,South,180,0.0,-999.0,99,-99.99,,,0.00,Acu-Link.com,2013-03-19 09:04:00,
2013-03-19 05:20:00,61.3,61.0,29.76,SSE,157,0.0,-999.0,99,-99.99,,,0.00,Acu-Link.com,2013-03-19 09:20:00,
2013-03-19 05:35:00,61.3,61.0,29.77,South,180,0.0,-999.0,99,-99.99,,,0.00,Acu-Link.com,2013-03-19 09:35:00,
2013-03-19 05:50:00,60.8,60.5,29.78,SSW,202,0.0,-999.0,99,-99.99,,,0.00,Acu-Link.com,2013-03-19 09:50:00,
2013-03-19 06:21:00,60.6,60.3,29.78,ESE,112,0.0,-999.0,99,-99.99,,,0.00,Acu-Link.com,2013-03-19 10:21:00,
2013-03-19 06:36:00,60.6,60.3,29.78,NNW,337,0.0,-999.0,99,-99.99,,,0.00,Acu-Link.com,2013-03-19 10:36:00,
2013-03-19 06:52:00,60.4,60.1,29.79,NNW,337,0.0,-999.0,99,-99.99,,,0.00,Acu-Link.com,2013-03-19 10:52:00,
2013-03-19 07:07:00,60.4,60.1,29.78,South,180,0.0,-999.0,99,-99.99,,,0.00,Acu-Link.com,2013-03-19 11:07:00,
2013-03-19 07:22:00,60.3,60.0,29.79,South,180,0.0,-999.0,99,-99.99,,,0.00,Acu-Link.com,2013-03-19 11:22:00,
2013-03-19 07:37:00,59.9,59.6,29.80,South,180,0.0,-999.0,99,-99.99,,,0.00,Acu-Link.com,2013-03-19 11:37:00,
2013-03-19 07:53:00,60.1,59.8,29.80,SE,135,0.0,-999.0,99,-99.99,,,0.00,Acu-Link.com,2013-03-19 11:53:00,
2013-03-19 08:08:00,62.2,61.9,29.80,WNW,292,0.0,-999.0,99,-99.99,,,0.00,Acu-Link.com,2013-03-19 12:08:00,
2013-03-19 08:23:00,63.3,63.0,29.82,NNE,22,0.0,-999.0,99,-99.99,,,0.00,Acu-Link.com,2013-03-19 12:23:00,
2013-03-19 08:38:00,64.0,63.7,29.82,West,270,0.0,-999.0,99,-99.99,,,0.00,Acu-Link.com,2013-03-19 12:38:00,
2013-03-19 08:54:00,64.8,64.5,29.82,WNW,292,0.0,-999.0,99,-99.99,,,0.00,Acu-Link.com,2013-03-19 12:54:00,
2013-03-19 09:09:00,66.0,65.7,29.83,WNW,292,0.0,-999.0,99,-99.99,,,0.00,Acu-Link.com,2013-03-19 13:09:00,
2013-03-19 09:24:00,66.7,65.8,29.84,West,270,0.0,-999.0,97,-99.99,,,0.00,Acu-Link.com,2013-03-19 13:24:00,
2013-03-19 09:40:00,67.1,65.6,29.84,West,270,0.0,-999.0,95,-99.99,,,0.00,Acu-Link.com,2013-03-19 13:40:00,
2013-03-19 09:55:00,68.5,66.7,29.84,SE,135,0.0,-999.0,94,-99.99,,,0.00,Acu-Link.com,2013-03-19 13:55:00,
2013-03-19 10:10:00,71.4,67.0,29.85,SE,135,2.2,-999.0,86,-99.99,,,0.00,Acu-Link.com,2013-03-19 14:10:00,
2013-03-19 10:25:00,72.0,66.9,29.83,West,270,0.0,-999.0,84,-99.99,,,0.00,Acu-Link.com,2013-03-19 14:25:00,
2013-03-19 10:40:00,73.2,66.6,29.83,WNW,292,0.0,-999.0,80,-99.99,,,0.00,Acu-Link.com,2013-03-19 14:40:00,
2013-03-19 10:56:00,75.7,66.4,29.84,ENE,67,1.7,-999.0,73,-99.99,,,0.00,Acu-Link.com,2013-03-19 14:56:00,
2013-03-19 11:26:00,76.1,64.8,29.85,ESE,112,2.2,-999.0,68,-99.99,,,0.00,Acu-Link.com,2013-03-19 15:26:00,
2013-03-19 11:42:00,78.8,65.6,29.85,NW,315,2.2,-999.0,64,-99.99,,,0.00,Acu-Link.com,2013-03-19 15:42:00,
2013-03-19 12:12:00,78.4,63.8,29.83,NE,45,3.7,-999.0,61,-99.99,,,0.00,Acu-Link.com,2013-03-19 16:12:00,
2013-03-19 12:27:00,80.2,64.5,29.82,SSE,157,3.2,-999.0,59,-99.99,,,0.00,Acu-Link.com,2013-03-19 16:27:00,
2013-03-19 12:43:00,80.6,63.9,29.81,ESE,112,2.7,-999.0,57,-99.99,,,0.00,Acu-Link.com,2013-03-19 16:43:00,
2013-03-19 12:58:00,79.5,63.4,29.80,SSE,157,3.7,-999.0,58,-99.99,,,0.00,Acu-Link.com,2013-03-19 16:58:00,
2013-03-19 13:13:00,79.3,63.7,29.81,North,0,3.7,-999.0,59,-99.99,,,0.00,Acu-Link.com,2013-03-19 17:13:00,
2013-03-19 13:28:00,79.5,64.4,29.80,SSE,157,0.0,-999.0,60,-99.99,,,0.00,Acu-Link.com,2013-03-19 17:28:00,
2013-03-19 13:44:00,82.0,64.2,29.81,ESE,112,2.7,-999.0,55,-99.99,,,0.00,Acu-Link.com,2013-03-19 17:44:00,
2013-03-19 13:59:00,82.9,64.5,29.81,SE,135,3.7,-999.0,54,-99.99,,,0.00,Acu-Link.com,2013-03-19 17:59:00,
2013-03-19 14:14:00,80.8,63.6,29.79,ESE,112,2.7,-999.0,56,-99.99,,,0.00,Acu-Link.com,2013-03-19 18:14:00,
2013-03-19 14:29:00,82.9,64.0,29.78,SE,135,3.2,-999.0,53,-99.99,,,0.00,Acu-Link.com,2013-03-19 18:29:00,
2013-03-19 14:44:00,84.2,65.2,29.77,SE,135,2.7,-999.0,53,-99.99,,,0.00,Acu-Link.com,2013-03-19 18:44:00,
2013-03-19 15:00:00,85.3,65.6,29.76,NNW,337,1.7,-999.0,52,-99.99,,,0.00,Acu-Link.com,2013-03-19 19:00:00,
2013-03-19 15:15:00,86.0,65.7,29.74,ESE,112,3.7,-999.0,51,-99.99,,,0.00,Acu-Link.com,2013-03-19 19:15:00,
2013-03-19 15:30:00,85.5,66.4,29.74,SE,135,4.7,-999.0,53,-99.99,,,0.00,Acu-Link.com,2013-03-19 19:30:00,
2013-03-19 15:45:00,85.8,66.1,29.74,SE,135,2.7,-999.0,52,-99.99,,,0.00,Acu-Link.com,2013-03-19 19:45:00,
2013-03-19 16:01:00,86.9,67.1,29.73,NE,45,2.2,-999.0,52,-99.99,,,0.00,Acu-Link.com,2013-03-19 20:01:00,
2013-03-19 16:47:00,84.9,66.4,29.72,ESE,112,4.7,-999.0,54,-99.99,,,0.00,Acu-Link.com,2013-03-19 20:47:00,
2013-03-19 17:02:00,86.4,67.2,29.71,SSE,157,2.2,-999.0,53,-99.99,,,0.00,Acu-Link.com,2013-03-19 21:02:00,
2013-03-19 17:17:00,84.4,66.4,29.72,SE,135,3.7,-999.0,55,-99.99,,,0.00,Acu-Link.com,2013-03-19 21:17:00,
2013-03-19 17:47:00,81.1,65.4,29.73,ESE,112,2.7,-999.0,59,-99.99,,,0.00,Acu-Link.com,2013-03-19 21:47:00,
2013-03-19 18:02:00,77.7,65.4,29.73,SSE,157,5.3,-999.0,66,-99.99,,,0.00,Acu-Link.com,2013-03-19 22:02:00,
2013-03-19 18:18:00,78.1,64.5,29.74,ESE,112,3.7,-999.0,63,-99.99,,,0.00,Acu-Link.com,2013-03-19 22:18:00,
2013-03-19 18:33:00,78.3,63.7,29.73,ESE,112,3.2,-999.0,61,-99.99,,,0.00,Acu-Link.com,2013-03-19 22:33:00,
2013-03-19 18:48:00,76.6,63.5,29.73,ESE,112,2.7,-999.0,64,-99.99,,,0.00,Acu-Link.com,2013-03-19 22:48:00,
2013-03-19 19:04:00,74.8,63.9,29.72,East,90,2.7,-999.0,69,-99.99,,,0.00,Acu-Link.com,2013-03-19 23:04:00,
2013-03-19 19:19:00,74.1,64.9,29.75,ENE,67,0.0,-999.0,73,-99.99,,,0.00,Acu-Link.com,2013-03-19 23:19:00,
2013-03-19 19:50:00,71.8,64.2,29.75,ESE,112,0.0,-999.0,77,-99.99,,,0.00,Acu-Link.com,2013-03-19 23:50:00,
2013-03-19 20:05:00,70.9,64.1,29.76,ESE,112,0.0,-999.0,79,-99.99,,,0.00,Acu-Link.com,2013-03-20 00:05:00,
2013-03-19 20:20:00,70.0,64.6,29.75,SSE,157,1.1,-999.0,83,-99.99,,,0.00,Acu-Link.com,2013-03-20 00:20:00,
2013-03-19 20:35:00,69.6,65.2,29.75,ESE,112,2.7,-999.0,86,-99.99,,,0.00,Acu-Link.com,2013-03-20 00:35:00,
2013-03-19 20:50:00,69.3,65.9,29.76,East,90,0.0,-999.0,89,-99.99,,,0.00,Acu-Link.com,2013-03-20 00:50:00,
2013-03-19 21:21:00,68.4,66.0,29.77,ESE,112,0.0,-999.0,92,-99.99,,,0.00,Acu-Link.com,2013-03-20 01:21:00,
2013-03-19 21:36:00,68.0,65.9,29.77,ESE,112,0.0,-999.0,93,-99.99,,,0.00,Acu-Link.com,2013-03-20 01:36:00,
2013-03-19 21:52:00,67.5,65.4,29.77,ESE,112,0.0,-999.0,93,-99.99,,,0.00,Acu-Link.com,2013-03-20 01:52:00,
2013-03-19 22:07:00,67.3,65.8,29.77,East,90,0.0,-999.0,95,-99.99,,,0.00,Acu-Link.com,2013-03-20 02:07:00,
2013-03-19 22:22:00,66.4,64.6,29.78,East,90,0.0,-999.0,94,-99.99,,,0.00,Acu-Link.com,2013-03-20 02:22:00,
2013-03-19 22:38:00,65.8,64.0,29.78,ESE,112,0.0,-999.0,94,-99.99,,,0.00,Acu-Link.com,2013-03-20 02:38:00,
2013-03-19 22:53:00,66.2,65.0,29.78,SW,225,0.0,-999.0,96,-99.99,,,0.00,Acu-Link.com,2013-03-20 02:53:00,
2013-03-19 23:08:00,66.0,65.1,29.78,WSW,247,0.0,-999.0,97,-99.99,,,0.00,Acu-Link.com,2013-03-20 03:08:00,
2013-03-19 23:23:00,65.5,64.3,29.78,SSE,157,0.0,-999.0,96,-99.99,,,0.00,Acu-Link.com,2013-03-20 03:23:00,
2013-03-19 23:38:00,65.1,63.9,29.78,SE,135,0.0,-999.0,96,-99.99,,,0.00,Acu-Link.com,2013-03-20 03:38:00,